Main page
Satellite images 10-day forecastsClimateMarine weather Cyclones Lightning AirportsFAQ Newsletter About
Weather : Europe Africa North America South America Asia Australia-Oceania Others
Languages Contact

Buenos Aires, Argentina

Aeroparque Jorge Newbery

latitude: 34-34S, longitude: 058-25W, elevation: 6 m


METAR: SABE 021200Z 05006KT CAVOK 11/07 Q1026
TAF: SABE 021100Z 0212/0312 07010KT 9999 SCT020 BKN060 TX14/0218Z TN09/0310Z BECMG 0220/0222 14010KT BECMG 0301/0303 BKN015

Time: 09:45 (12:45 UTC)

Current weather observation

The report was made 45 minutes ago, at 12:00 UTC
Wind 6 kt from the Northeast
Temperature 11°C
Humidity 76%
Pressure 1026 hPa
Visibility 10 km or more
no clouds below 1500 m and no cumulonimbus

Change units

Forecast

The report was made 1 hour and 45 minutes ago, at 11:00 UTC
Forecast valid from 02 at 12 UTC to 03 at 12 UTC
Wind 10 kt from the East/Northeast
Visibility 10 km or more
Scattered clouds at a height of 2000 ft
Broken clouds at a height of 6000 ft
Becoming
from 02 at 20 UTC to 02 at 22 UTC
Wind 10 kt from the Southeast
Becoming
from 03 at 01 UTC to 03 at 03 UTC
Broken clouds at a height of 1500 ft
The information on this site is subject to a disclaimer
Weather : Europe Africa North America South America Asia Australia-Oceania Others
Satellite images 10-day forecastsClimateMarine weather Cyclones Lightning AirportsFAQ Languages Contact Newsletter About